Time;durP1;ratioP1;P1;durP2;ratioP2;P2;SDS_P1;SDS_P2;PMS_P1;PMS_P2;Temp;Humidity;BMP_temperature;BMP_pressure;BME280_temperature;BME280_humidity;BME280_pressure;Samples;Min_cycle;Max_cycle;Signal;HPM_P1;HPM_P2
2023/03/18 00:01:06;;;;;;;14.05;13.05;;;;;;;;;;5010362;28;20052;-60
2023/03/18 00:03:33;;;;;;;14.43;13.43;;;;;;;;;;4994261;28;20109;-59
2023/03/18 00:06:28;;;;;;;14.13;13.23;;;;;;;;;;4993579;28;20153;-59
2023/03/18 00:08:54;;;;;;;13.90;12.90;;;;;;;;;;4976014;28;20053;-59
2023/03/18 00:11:20;;;;;;;12.82;11.93;;;;;;;;;;4993657;28;20030;-59
2023/03/18 00:13:46;;;;;;;13.23;12.32;;;;;;;;;;4995548;28;20092;-60
2023/03/18 00:16:12;;;;;;;13.27;12.48;;;;;;;;;;4990501;28;20672;-60
2023/03/18 00:18:39;;;;;;;12.02;11.32;;;;;;;;;;4992701;28;20033;-59
2023/03/18 00:21:04;;;;;;;12.60;11.80;;;;;;;;;;4995661;28;20045;-60
2023/03/18 00:23:32;;;;;;;13.88;12.90;;;;;;;;;;4993485;28;20392;-60
2023/03/18 00:25:59;;;;;;;12.07;11.27;;;;;;;;;;4994819;28;20038;-60
2023/03/18 00:28:25;;;;;;;11.38;10.68;;;;;;;;;;4992433;28;20033;-60
2023/03/18 00:30:51;;;;;;;12.73;11.93;;;;;;;;;;4991856;28;20036;-60
2023/03/18 00:33:17;;;;;;;11.27;10.57;;;;;;;;;;4996079;28;20034;-60
2023/03/18 00:35:46;;;;;;;11.05;10.35;;;;;;;;;;4994890;28;20138;-60
2023/03/18 00:38:19;;;;;;;12.05;11.35;;;;;;;;;;4993208;28;20033;-60
2023/03/18 00:40:59;;;;;;;11.10;10.40;;;;;;;;;;4995112;28;20048;-60
2023/03/18 00:43:28;;;;;;;11.70;11.00;;;;;;;;;;4994282;28;20372;-59
2023/03/18 00:45:55;;;;;;;11.93;11.13;;;;;;;;;;4993263;28;20034;-59
2023/03/18 00:48:23;;;;;;;12.43;11.65;;;;;;;;;;4993434;28;20439;-59
2023/03/18 00:50:49;;;;;;;11.05;10.35;;;;;;;;;;4992119;28;20103;-60
2023/03/18 00:53:14;;;;;;;12.43;11.63;;;;;;;;;;4993549;28;20436;-59
2023/03/18 00:55:41;;;;;;;12.40;11.60;;;;;;;;;;4997040;28;20180;-59
2023/03/18 00:58:07;;;;;;;11.55;10.85;;;;;;;;;;4994446;28;20128;-59
2023/03/18 01:00:34;;;;;;;11.43;10.73;;;;;;;;;;4996177;28;20482;-59
2023/03/18 01:03:00;;;;;;;10.77;10.07;;;;;;;;;;4992899;28;20562;-59
2023/03/18 01:05:25;;;;;;;12.18;11.38;;;;;;;;;;4994742;28;20122;-59
2023/03/18 01:07:51;;;;;;;12.18;11.18;;;;;;;;;;4996186;28;20100;-59
2023/03/18 01:10:17;;;;;;;11.48;10.77;;;;;;;;;;4991856;28;20062;-59
2023/03/18 01:12:45;;;;;;;11.98;11.13;;;;;;;;;;4993215;28;20515;-59
2023/03/18 01:15:13;;;;;;;14.52;13.05;;;;;;;;;;4991966;28;20620;-59
2023/03/18 01:17:39;;;;;;;14.82;13.73;;;;;;;;;;4994129;28;20070;-59
2023/03/18 01:20:05;;;;;;;20.88;18.17;;;;;;;;;;4993772;28;20145;-59
2023/03/18 01:22:31;;;;;;;20.08;18.33;;;;;;;;;;4995080;28;20048;-59
2023/03/18 01:24:57;;;;;;;19.60;17.92;;;;;;;;;;4994262;28;20033;-59
2023/03/18 01:27:23;;;;;;;17.17;15.90;;;;;;;;;;4994248;28;20038;-59
2023/03/18 01:29:48;;;;;;;17.35;15.93;;;;;;;;;;4990817;28;20350;-59
2023/03/18 01:32:14;;;;;;;14.05;12.98;;;;;;;;;;4996112;28;20042;-59
2023/03/18 01:34:40;;;;;;;12.80;11.85;;;;;;;;;;4992485;28;20030;-59
2023/03/18 01:37:06;;;;;;;12.05;11.25;;;;;;;;;;4997577;28;20099;-59
2023/03/18 01:39:33;;;;;;;13.48;12.55;;;;;;;;;;4994515;28;20387;-59
2023/03/18 01:41:58;;;;;;;12.23;11.45;;;;;;;;;;4995476;28;20084;-59
2023/03/18 01:44:24;;;;;;;12.10;11.35;;;;;;;;;;4998171;28;20050;-59
2023/03/18 01:46:51;;;;;;;13.07;12.27;;;;;;;;;;4996267;28;20060;-59
2023/03/18 01:49:19;;;;;;;12.95;12.15;;;;;;;;;;4996257;28;20041;-59
2023/03/18 01:51:53;;;;;;;11.23;10.52;;;;;;;;;;5012141;28;20046;-58
2023/03/18 01:54:18;;;;;;;11.73;11.02;;;;;;;;;;4994921;28;20114;-58
2023/03/18 01:56:47;;;;;;;12.02;11.23;;;;;;;;;;4997326;28;20048;-59
2023/03/18 01:59:14;;;;;;;13.07;12.23;;;;;;;;;;4992108;28;20034;-59
2023/03/18 02:01:47;;;;;;;13.82;12.93;;;;;;;;;;4994805;28;20392;-59
2023/03/18 02:04:13;;;;;;;14.00;13.10;;;;;;;;;;4998023;28;20038;-59
2023/03/18 02:06:39;;;;;;;11.82;11.02;;;;;;;;;;4995711;28;20042;-59
2023/03/18 02:09:05;;;;;;;13.82;13.02;;;;;;;;;;4995883;28;20397;-59
2023/03/18 02:11:35;;;;;;;11.75;11.05;;;;;;;;;;4997042;28;20045;-58
2023/03/18 02:14:02;;;;;;;12.52;11.63;;;;;;;;;;4995931;28;20736;-58
2023/03/18 02:16:47;;;;;;;13.32;12.52;;;;;;;;;;4998298;28;20317;-59
2023/03/18 02:19:54;;;;;;;11.80;11.10;;;;;;;;;;4996634;28;20468;-60
2023/03/18 02:22:32;;;;;;;12.82;11.93;;;;;;;;;;4994951;28;20052;-59
2023/03/18 02:25:29;;;;;;;13.15;12.05;;;;;;;;;;4997764;28;20101;-60
2023/03/18 02:28:19;;;;;;;12.35;11.55;;;;;;;;;;4997437;28;20392;-59
2023/03/18 02:30:51;;;;;;;15.40;13.02;;;;;;;;;;4995261;28;20455;-59
2023/03/18 02:33:20;;;;;;;13.65;12.60;;;;;;;;;;4997050;28;20029;-59
2023/03/18 02:35:49;;;;;;;12.02;11.32;;;;;;;;;;4997526;28;20068;-59
2023/03/18 02:38:14;;;;;;;13.02;12.15;;;;;;;;;;4996776;28;20032;-59
2023/03/18 02:40:40;;;;;;;13.40;12.07;;;;;;;;;;4997206;28;20046;-59
2023/03/18 02:43:27;;;;;;;14.98;14.00;;;;;;;;;;4994789;28;20117;-57
2023/03/18 02:46:11;;;;;;;11.90;11.20;;;;;;;;;;4993016;28;20037;-56
2023/03/18 02:48:40;;;;;;;12.95;12.15;;;;;;;;;;4995953;28;20084;-56
2023/03/18 02:51:06;;;;;;;14.57;13.38;;;;;;;;;;4994958;28;20486;-56
2023/03/18 02:53:32;;;;;;;11.90;11.20;;;;;;;;;;4994842;28;20034;-56
2023/03/18 02:55:58;;;;;;;13.52;12.63;;;;;;;;;;4993301;28;20037;-56
2023/03/18 02:58:24;;;;;;;12.02;11.27;;;;;;;;;;4994535;28;20727;-55
2023/03/18 03:00:49;;;;;;;13.77;12.88;;;;;;;;;;4991151;28;20046;-56
2023/03/18 03:03:15;;;;;;;12.40;11.63;;;;;;;;;;4996894;28;20674;-56
2023/03/18 03:05:40;;;;;;;12.38;11.57;;;;;;;;;;4996614;28;20033;-56
2023/03/18 03:08:06;;;;;;;13.20;12.40;;;;;;;;;;4993369;28;20034;-56
2023/03/18 03:10:31;;;;;;;14.38;13.48;;;;;;;;;;4994731;28;20441;-55
2023/03/18 03:12:57;;;;;;;13.40;12.50;;;;;;;;;;4995869;28;20372;-56
2023/03/18 03:15:23;;;;;;;14.35;13.43;;;;;;;;;;4995420;28;20441;-56
2023/03/18 03:17:48;;;;;;;13.43;12.63;;;;;;;;;;4994072;28;20393;-55
2023/03/18 03:20:14;;;;;;;14.13;13.23;;;;;;;;;;4993704;28;20034;-56
2023/03/18 03:22:40;;;;;;;13.25;12.45;;;;;;;;;;4996194;28;20109;-55
2023/03/18 03:25:08;;;;;;;14.57;13.68;;;;;;;;;;5012174;28;20034;-56
2023/03/18 03:27:35;;;;;;;14.02;13.20;;;;;;;;;;4995178;28;20078;-56
2023/03/18 03:30:01;;;;;;;14.85;13.95;;;;;;;;;;4994501;28;20394;-56
2023/03/18 03:32:27;;;;;;;14.07;13.18;;;;;;;;;;4995867;28;20045;-56
2023/03/18 03:34:53;;;;;;;12.38;11.57;;;;;;;;;;4991303;28;20039;-56
2023/03/18 03:37:18;;;;;;;13.50;12.70;;;;;;;;;;4991166;28;20030;-56
2023/03/18 03:39:44;;;;;;;12.88;12.02;;;;;;;;;;4989527;28;20495;-55
2023/03/18 03:42:10;;;;;;;12.75;11.95;;;;;;;;;;4991873;28;20038;-56
2023/03/18 03:44:35;;;;;;;13.32;12.50;;;;;;;;;;4990815;28;20033;-56
2023/03/18 03:47:00;;;;;;;13.07;12.27;;;;;;;;;;4999744;28;20507;-56
2023/03/18 03:49:26;;;;;;;13.05;12.25;;;;;;;;;;4990795;28;20460;-56
2023/03/18 03:51:51;;;;;;;13.80;12.90;;;;;;;;;;4995176;28;20033;-56
2023/03/18 03:54:18;;;;;;;13.30;12.38;;;;;;;;;;4997875;28;20434;-56
2023/03/18 03:56:43;;;;;;;13.23;12.43;;;;;;;;;;5010864;28;20041;-57
2023/03/18 03:59:09;;;;;;;12.10;11.40;;;;;;;;;;4993879;28;20122;-55
2023/03/18 04:01:35;;;;;;;11.90;11.20;;;;;;;;;;4993229;28;20042;-55
2023/03/18 04:04:01;;;;;;;14.93;12.25;;;;;;;;;;4994736;28;20033;-56
2023/03/18 04:06:27;;;;;;;13.50;12.50;;;;;;;;;;4994569;28;20030;-55
2023/03/18 04:08:53;;;;;;;12.93;12.13;;;;;;;;;;4993763;28;20048;-56
2023/03/18 04:11:19;;;;;;;12.35;11.55;;;;;;;;;;4997890;28;20111;-55
2023/03/18 04:13:44;;;;;;;13.50;12.60;;;;;;;;;;4991786;28;20034;-56
2023/03/18 04:16:10;;;;;;;11.82;11.13;;;;;;;;;;4991016;28;20491;-56
2023/03/18 04:18:35;;;;;;;12.13;11.40;;;;;;;;;;4994665;28;20361;-56
2023/03/18 04:21:01;;;;;;;13.30;12.50;;;;;;;;;;4991104;28;20038;-56
2023/03/18 04:23:26;;;;;;;14.75;13.68;;;;;;;;;;5009575;28;20280;-56
2023/03/18 04:25:52;;;;;;;12.30;11.60;;;;;;;;;;4993356;28;20105;-56
2023/03/18 04:28:17;;;;;;;12.70;11.90;;;;;;;;;;4990792;28;20112;-56
2023/03/18 04:30:43;;;;;;;12.98;12.13;;;;;;;;;;4992170;28;20034;-56
2023/03/18 04:33:08;;;;;;;13.23;12.35;;;;;;;;;;4995025;28;20046;-56
2023/03/18 04:35:35;;;;;;;12.48;11.68;;;;;;;;;;4989725;28;20120;-55
2023/03/18 04:38:00;;;;;;;13.18;12.38;;;;;;;;;;4990934;28;20045;-56
2023/03/18 04:40:26;;;;;;;13.18;12.35;;;;;;;;;;4990586;28;20031;-56
2023/03/18 04:42:52;;;;;;;14.00;13.10;;;;;;;;;;4999561;28;20089;-56
2023/03/18 04:45:17;;;;;;;13.15;12.35;;;;;;;;;;4992132;28;20030;-56
2023/03/18 04:47:44;;;;;;;14.23;13.25;;;;;;;;;;4991023;28;20471;-57
2023/03/18 04:50:11;;;;;;;13.13;12.32;;;;;;;;;;4992705;28;20056;-55
2023/03/18 04:52:40;;;;;;;14.68;13.75;;;;;;;;;;4993305;28;20053;-56
2023/03/18 04:55:08;;;;;;;13.00;12.20;;;;;;;;;;4991579;28;20058;-56
2023/03/18 04:57:36;;;;;;;12.82;12.02;;;;;;;;;;4993293;28;20094;-54
2023/03/18 05:00:04;;;;;;;14.35;13.27;;;;;;;;;;4992793;28;20041;-57
2023/03/18 05:02:30;;;;;;;13.43;12.63;;;;;;;;;;5009189;28;20095;-57
2023/03/18 05:04:56;;;;;;;14.02;13.23;;;;;;;;;;4990639;28;20034;-58
2023/03/18 05:07:21;;;;;;;14.20;13.25;;;;;;;;;;4993841;28;20040;-58
2023/03/18 05:09:47;;;;;;;13.48;12.68;;;;;;;;;;4993873;28;20121;-58
2023/03/18 05:12:14;;;;;;;15.10;14.02;;;;;;;;;;4996877;28;20099;-58
2023/03/18 05:14:41;;;;;;;14.60;13.65;;;;;;;;;;4998798;28;20034;-58
2023/03/18 05:17:07;;;;;;;15.25;14.25;;;;;;;;;;4996698;28;20112;-56
2023/03/18 05:19:33;;;;;;;13.90;13.10;;;;;;;;;;4994564;28;20038;-57
2023/03/18 05:21:59;;;;;;;14.07;13.18;;;;;;;;;;4994638;28;20157;-58
2023/03/18 05:24:24;;;;;;;13.15;12.35;;;;;;;;;;4997072;28;20026;-57
2023/03/18 05:26:49;;;;;;;13.25;12.45;;;;;;;;;;4995819;28;20045;-58
2023/03/18 05:29:15;;;;;;;13.90;13.02;;;;;;;;;;4996063;28;20389;-57
2023/03/18 05:31:41;;;;;;;13.38;12.50;;;;;;;;;;4996380;28;20040;-57
2023/03/18 05:34:07;;;;;;;14.23;13.27;;;;;;;;;;5003340;28;20117;-57
2023/03/18 05:36:33;;;;;;;14.75;13.85;;;;;;;;;;4996205;28;20519;-59
2023/03/18 05:38:58;;;;;;;13.02;12.23;;;;;;;;;;4994203;28;20052;-59
2023/03/18 05:41:24;;;;;;;12.82;12.00;;;;;;;;;;4996249;28;20030;-59
2023/03/18 05:43:50;;;;;;;13.35;12.55;;;;;;;;;;4997441;28;20101;-59
2023/03/18 05:46:16;;;;;;;13.90;13.02;;;;;;;;;;4996039;28;20034;-59
2023/03/18 05:48:42;;;;;;;12.60;11.70;;;;;;;;;;4996530;28;20044;-59
2023/03/18 05:51:08;;;;;;;13.73;12.93;;;;;;;;;;4994974;28;20127;-58
2023/03/18 05:53:33;;;;;;;12.50;11.80;;;;;;;;;;4993183;28;20037;-60
2023/03/18 05:55:59;;;;;;;14.35;13.43;;;;;;;;;;4996796;28;20034;-58
2023/03/18 05:58:24;;;;;;;13.68;12.82;;;;;;;;;;4997782;28;20479;-58
2023/03/18 06:00:50;;;;;;;14.93;14.02;;;;;;;;;;4992415;28;20031;-59
2023/03/18 06:03:16;;;;;;;12.88;12.10;;;;;;;;;;4995488;28;20048;-57
2023/03/18 06:05:42;;;;;;;14.65;13.52;;;;;;;;;;4993303;28;20081;-60
2023/03/18 06:08:08;;;;;;;13.43;12.63;;;;;;;;;;4996176;28;20041;-57
2023/03/18 06:10:33;;;;;;;13.68;12.88;;;;;;;;;;4993959;28;20038;-57
2023/03/18 06:12:59;;;;;;;13.57;12.75;;;;;;;;;;4998506;28;20041;-56
2023/03/18 06:15:25;;;;;;;14.18;13.20;;;;;;;;;;4995586;28;20030;-56
2023/03/18 06:17:51;;;;;;;12.68;11.93;;;;;;;;;;4993268;28;20482;-58
2023/03/18 06:20:18;;;;;;;14.18;12.27;;;;;;;;;;4996582;28;20031;-57
2023/03/18 06:22:48;;;;;;;13.45;12.60;;;;;;;;;;4991519;28;20472;-58
2023/03/18 06:25:15;;;;;;;13.80;12.90;;;;;;;;;;4996394;28;20638;-58
2023/03/18 06:27:40;;;;;;;13.43;12.52;;;;;;;;;;4994007;28;20400;-57
2023/03/18 06:30:07;;;;;;;13.38;12.55;;;;;;;;;;4998472;28;20038;-57
2023/03/18 06:32:32;;;;;;;14.40;13.50;;;;;;;;;;4993406;28;20030;-57
2023/03/18 06:34:58;;;;;;;13.68;12.85;;;;;;;;;;4997834;28;20045;-59
2023/03/18 06:37:23;;;;;;;12.68;11.90;;;;;;;;;;4994319;28;20056;-57
2023/03/18 06:39:49;;;;;;;13.77;12.98;;;;;;;;;;4989687;28;20034;-57
2023/03/18 06:42:14;;;;;;;13.80;13.00;;;;;;;;;;4993800;28;20483;-58
2023/03/18 06:44:43;;;;;;;13.13;12.32;;;;;;;;;;4992014;28;20422;-57
2023/03/18 06:47:08;;;;;;;13.73;12.85;;;;;;;;;;4995037;28;20101;-58
2023/03/18 06:49:34;;;;;;;12.93;12.13;;;;;;;;;;4994042;28;20143;-59
2023/03/18 06:51:59;;;;;;;12.80;12.00;;;;;;;;;;4995244;28;20045;-57
2023/03/18 06:54:25;;;;;;;11.82;11.13;;;;;;;;;;4996323;28;20563;-58
2023/03/18 06:56:50;;;;;;;15.32;14.40;;;;;;;;;;4993262;28;20657;-57
2023/03/18 06:59:16;;;;;;;13.68;12.80;;;;;;;;;;4993506;28;20109;-57
2023/03/18 07:01:42;;;;;;;13.80;12.93;;;;;;;;;;4992919;28;20056;-57
2023/03/18 07:04:07;;;;;;;13.73;12.85;;;;;;;;;;4995570;28;20026;-60
2023/03/18 07:06:33;;;;;;;14.15;13.27;;;;;;;;;;4993815;28;20302;-57
2023/03/18 07:09:00;;;;;;;14.30;13.40;;;;;;;;;;4993183;28;20042;-58
2023/03/18 07:11:26;;;;;;;13.70;12.90;;;;;;;;;;4994325;28;20037;-57
2023/03/18 07:13:52;;;;;;;14.25;13.35;;;;;;;;;;5009151;28;20048;-58
2023/03/18 07:16:18;;;;;;;13.48;12.60;;;;;;;;;;4995790;28;20033;-56
2023/03/18 07:18:43;;;;;;;12.77;11.88;;;;;;;;;;4999931;28;20474;-58
2023/03/18 07:21:08;;;;;;;13.52;12.32;;;;;;;;;;4996334;28;20041;-57
2023/03/18 07:23:35;;;;;;;12.63;11.77;;;;;;;;;;4995542;28;20045;-58
2023/03/18 07:26:00;;;;;;;12.30;11.48;;;;;;;;;;4994293;28;20495;-58
2023/03/18 07:28:25;;;;;;;13.75;12.75;;;;;;;;;;4994132;28;20064;-58
2023/03/18 07:30:51;;;;;;;13.50;12.60;;;;;;;;;;5001275;28;20550;-58
2023/03/18 07:33:16;;;;;;;13.48;12.63;;;;;;;;;;4991357;28;20034;-58
2023/03/18 07:35:42;;;;;;;13.10;12.30;;;;;;;;;;4991043;28;20042;-58
2023/03/18 07:38:08;;;;;;;14.35;13.38;;;;;;;;;;4996778;28;20148;-59
2023/03/18 07:40:34;;;;;;;11.98;11.25;;;;;;;;;;4990058;28;20037;-59
2023/03/18 07:43:00;;;;;;;13.35;12.20;;;;;;;;;;4990466;28;20045;-59
2023/03/18 07:45:25;;;;;;;15.32;14.30;;;;;;;;;;4991565;28;20533;-59
2023/03/18 07:47:51;;;;;;;12.77;11.88;;;;;;;;;;4996345;28;20037;-58
2023/03/18 07:50:17;;;;;;;14.65;13.50;;;;;;;;;;4992354;28;20746;-59
2023/03/18 07:52:43;;;;;;;12.32;11.63;;;;;;;;;;4991648;28;20044;-58
2023/03/18 07:55:10;;;;;;;13.10;12.25;;;;;;;;;;4990483;28;20130;-59
2023/03/18 07:57:36;;;;;;;12.98;12.02;;;;;;;;;;4988668;28;20061;-59
2023/03/18 08:00:04;;;;;;;13.80;12.90;;;;;;;;;;4992148;28;20812;-58
2023/03/18 08:02:29;;;;;;;12.90;12.02;;;;;;;;;;4993003;28;20542;-58
2023/03/18 08:04:55;;;;;;;12.00;11.30;;;;;;;;;;4992742;28;20068;-59
2023/03/18 08:07:21;;;;;;;13.32;12.52;;;;;;;;;;4992956;28;20496;-59
2023/03/18 08:09:47;;;;;;;13.18;12.02;;;;;;;;;;4993686;28;20620;-58
2023/03/18 08:12:12;;;;;;;12.05;11.35;;;;;;;;;;4994237;28;20038;-59
2023/03/18 08:14:38;;;;;;;13.32;12.48;;;;;;;;;;4993233;28;20033;-59
2023/03/18 08:17:03;;;;;;;12.43;11.63;;;;;;;;;;4993344;28;20053;-60
2023/03/18 08:19:29;;;;;;;13.88;12.98;;;;;;;;;;4996357;28;20053;-58
2023/03/18 08:21:54;;;;;;;12.73;11.93;;;;;;;;;;4990347;28;20053;-59
2023/03/18 08:24:20;;;;;;;12.77;12.00;;;;;;;;;;4994009;28;20054;-58
2023/03/18 08:26:46;;;;;;;13.90;13.10;;;;;;;;;;4998235;28;20030;-58
2023/03/18 08:29:11;;;;;;;15.77;14.88;;;;;;;;;;4991218;28;20038;-59
2023/03/18 08:31:37;;;;;;;17.98;16.88;;;;;;;;;;4992166;28;20038;-53
2023/03/18 08:34:03;;;;;;;16.48;15.57;;;;;;;;;;4989771;28;20096;-58
2023/03/18 08:36:28;;;;;;;16.95;15.95;;;;;;;;;;4993889;28;20041;-59
2023/03/18 08:38:54;;;;;;;15.63;14.73;;;;;;;;;;4993129;28;20077;-58
2023/03/18 08:41:19;;;;;;;16.85;15.85;;;;;;;;;;4996151;28;20044;-57
2023/03/18 08:43:45;;;;;;;14.40;13.60;;;;;;;;;;4989385;28;20034;-58
2023/03/18 08:46:11;;;;;;;15.88;14.93;;;;;;;;;;5010052;28;20088;-58
2023/03/18 08:48:37;;;;;;;14.88;13.90;;;;;;;;;;4997048;28;20038;-58
2023/03/18 08:51:03;;;;;;;14.57;13.68;;;;;;;;;;4997068;28;20060;-58
2023/03/18 08:53:29;;;;;;;13.90;13.07;;;;;;;;;;4997265;28;20065;-59
2023/03/18 08:55:55;;;;;;;13.68;12.88;;;;;;;;;;4993196;28;20116;-58
2023/03/18 08:58:20;;;;;;;14.27;13.48;;;;;;;;;;4994336;28;20033;-59
2023/03/18 09:00:46;;;;;;;13.82;13.02;;;;;;;;;;4996469;28;20619;-59
2023/03/18 09:03:12;;;;;;;14.40;13.60;;;;;;;;;;4993705;28;20215;-58
2023/03/18 09:05:39;;;;;;;14.30;13.32;;;;;;;;;;4997972;28;20137;-59
2023/03/18 09:08:05;;;;;;;13.45;12.65;;;;;;;;;;4993947;28;20026;-59
2023/03/18 09:10:30;;;;;;;13.02;12.23;;;;;;;;;;4995335;28;20072;-59
2023/03/18 09:12:56;;;;;;;13.55;12.35;;;;;;;;;;4997885;28;20471;-58
2023/03/18 09:15:21;;;;;;;13.55;12.70;;;;;;;;;;4998382;28;20049;-59
2023/03/18 09:17:47;;;;;;;12.80;12.00;;;;;;;;;;4997323;28;20038;-58
2023/03/18 09:20:14;;;;;;;14.13;13.27;;;;;;;;;;4996792;28;20038;-58
2023/03/18 09:22:41;;;;;;;16.55;15.65;;;;;;;;;;5010978;28;20034;-58
2023/03/18 09:25:07;;;;;;;13.25;12.45;;;;;;;;;;4995046;28;20034;-58
2023/03/18 09:27:33;;;;;;;14.35;13.55;;;;;;;;;;4994598;28;20034;-58
2023/03/18 09:29:58;;;;;;;17.45;16.45;;;;;;;;;;4995306;28;20127;-58
2023/03/18 09:32:24;;;;;;;15.32;14.45;;;;;;;;;;4996499;28;20126;-59
2023/03/18 09:34:50;;;;;;;20.63;19.50;;;;;;;;;;4998510;28;20045;-58
2023/03/18 09:37:17;;;;;;;22.20;21.00;;;;;;;;;;4998616;28;20049;-58
2023/03/18 09:39:43;;;;;;;18.10;17.08;;;;;;;;;;4996850;28;20825;-58
2023/03/18 09:42:17;;;;;;;28.80;27.27;;;;;;;;;;4998802;28;20144;-58
2023/03/18 09:44:44;;;;;;;28.27;26.65;;;;;;;;;;4997376;28;20059;-59
2023/03/18 09:47:46;;;;;;;29.05;27.52;;;;;;;;;;4993682;28;20571;-59
2023/03/18 09:50:12;;;;;;;24.83;23.52;;;;;;;;;;4994834;28;20038;-58
2023/03/18 09:52:47;;;;;;;26.38;24.88;;;;;;;;;;4995832;28;20041;-58
2023/03/18 09:55:39;;;;;;;25.77;24.42;;;;;;;;;;4996643;28;20221;-59
2023/03/18 09:58:16;;;;;;;25.27;23.92;;;;;;;;;;4995226;28;20046;-59
2023/03/18 10:00:43;;;;;;;24.95;23.50;;;;;;;;;;4992639;28;20053;-59
2023/03/18 10:03:08;;;;;;;33.17;31.48;;;;;;;;;;4994205;28;20074;-59
2023/03/18 10:05:57;;;;;;;33.63;31.90;;;;;;;;;;4998798;28;20033;-60
2023/03/18 10:08:50;;;;;;;33.75;32.03;;;;;;;;;;4997798;28;20038;-59
2023/03/18 10:11:28;;;;;;;31.83;30.13;;;;;;;;;;5011782;28;20027;-59
2023/03/18 10:14:25;;;;;;;33.80;31.90;;;;;;;;;;4996368;28;20104;-59
2023/03/18 10:17:03;;;;;;;31.95;30.25;;;;;;;;;;4996364;28;20676;-60
2023/03/18 10:19:29;;;;;;;27.70;26.20;;;;;;;;;;4995370;28;20076;-59
2023/03/18 10:22:17;;;;;;;29.65;28.05;;;;;;;;;;4992113;28;20476;-59
2023/03/18 10:25:17;;;;;;;33.78;32.00;;;;;;;;;;4993786;28;20034;-59
2023/03/18 10:28:16;;;;;;;34.05;32.25;;;;;;;;;;4988751;28;20050;-59
2023/03/18 10:31:33;;;;;;;37.72;35.72;;;;;;;;;;4996881;28;20563;-60
2023/03/18 10:34:03;;;;;;;32.63;30.90;;;;;;;;;;4973488;28;20133;-58
2023/03/18 10:36:54;;;;;;;33.03;31.33;;;;;;;;;;4998469;28;20154;-59
2023/03/18 10:39:23;;;;;;;33.17;31.27;;;;;;;;;;4994128;28;20071;-59
2023/03/18 10:41:50;;;;;;;35.20;33.25;;;;;;;;;;4994713;28;20034;-51
2023/03/18 10:44:21;;;;;;;33.03;31.33;;;;;;;;;;4997391;28;20992;-51
2023/03/18 10:46:59;;;;;;;36.70;34.80;;;;;;;;;;4995803;28;20050;-47
2023/03/18 10:49:29;;;;;;;34.08;32.33;;;;;;;;;;4993512;28;20463;-51
2023/03/18 10:52:06;;;;;;;37.08;35.17;;;;;;;;;;5011785;28;20585;-51
2023/03/18 10:54:39;;;;;;;36.58;34.67;;;;;;;;;;5000500;28;20459;-52
2023/03/18 10:57:05;;;;;;;25.75;24.35;;;;;;;;;;4996334;28;20415;-50
2023/03/18 10:59:33;;;;;;;22.83;21.60;;;;;;;;;;4993478;28;20045;-52
2023/03/18 11:02:03;;;;;;;27.55;26.10;;;;;;;;;;4999618;28;20042;-50
2023/03/18 11:04:37;;;;;;;22.35;21.15;;;;;;;;;;4995038;28;20117;-48
2023/03/18 11:07:07;;;;;;;24.10;22.80;;;;;;;;;;4994856;28;20077;-48
2023/03/18 11:09:35;;;;;;;20.93;19.83;;;;;;;;;;4991682;28;20089;-52
2023/03/18 11:12:21;;;;;;;22.90;21.70;;;;;;;;;;4995955;28;20278;-50
2023/03/18 11:14:49;;;;;;;20.38;19.27;;;;;;;;;;4993373;28;20030;-50
2023/03/18 11:17:29;;;;;;;23.38;22.15;;;;;;;;;;4987779;28;20091;-52
2023/03/18 11:20:20;;;;;;;18.75;16.90;;;;;;;;;;4987332;28;20030;-51
2023/03/18 11:22:51;;;;;;;;;;;;;;;;;;4994503;28;20044;-48
2023/03/18 11:25:25;;;;;;;23.30;22.08;;;;;;;;;;5011773;28;20023;-50
2023/03/18 11:28:26;;;;;;;25.73;24.33;;;;;;;;;;4999313;28;20045;-50
2023/03/18 11:30:56;;;;;;;21.50;20.33;;;;;;;;;;4992122;28;20162;-50
2023/03/18 11:33:29;;;;;;;26.33;24.92;;;;;;;;;;4994434;28;20033;-52
2023/03/18 11:36:05;;;;;;;27.13;25.63;;;;;;;;;;5002207;28;20549;-49
2023/03/18 11:38:33;;;;;;;38.50;36.50;;;;;;;;;;4997993;28;20144;-49
2023/03/18 11:41:11;;;;;;;28.95;27.45;;;;;;;;;;4998575;28;20128;-60
2023/03/18 11:43:37;;;;;;;33.45;30.95;;;;;;;;;;4993335;28;20061;-59
2023/03/18 11:46:05;;;;;;;30.42;28.85;;;;;;;;;;4993643;28;20132;-60
2023/03/18 11:48:37;;;;;;;37.38;35.42;;;;;;;;;;4994935;28;20045;-51
2023/03/18 11:51:21;;;;;;;33.55;31.75;;;;;;;;;;4995385;28;20375;-50
2023/03/18 11:54:13;;;;;;;22.63;21.42;;;;;;;;;;4996921;28;20034;-53
2023/03/18 11:56:42;;;;;;;33.45;31.67;;;;;;;;;;5000046;28;20062;-50
2023/03/18 11:59:26;;;;;;;22.90;21.70;;;;;;;;;;4992737;28;20100;-51
2023/03/18 12:02:30;;;;;;;27.45;26.02;;;;;;;;;;4996102;28;20111;-52
2023/03/18 12:05:18;;;;;;;26.13;24.63;;;;;;;;;;4995728;28;20037;-52
2023/03/18 12:07:59;;;;;;;22.98;21.77;;;;;;;;;;4994485;28;20030;-53
2023/03/18 12:10:35;;;;;;;36.55;34.65;;;;;;;;;;4995150;28;20038;-60
2023/03/18 12:13:25;;;;;;;29.75;28.17;;;;;;;;;;4995086;28;20048;-60
2023/03/18 12:15:53;;;;;;;;;;;;;;;;;;4996961;28;20084;-59
2023/03/18 12:18:36;;;;;;;17.02;16.05;;;;;;;;;;4992700;28;19927;-60
2023/03/18 12:21:39;;;;;;;18.20;17.20;;;;;;;;;;4992329;28;20042;-60
2023/03/18 12:24:55;;;;;;;16.92;15.93;;;;;;;;;;4988015;28;20383;-60
2023/03/18 12:27:36;;;;;;;17.67;16.67;;;;;;;;;;4958393;28;20046;-60
2023/03/18 12:30:19;;;;;;;18.17;16.55;;;;;;;;;;4991082;28;20136;-59
2023/03/18 12:32:53;;;;;;;15.82;14.80;;;;;;;;;;4992315;28;20065;-59
2023/03/18 12:35:44;;;;;;;15.45;14.55;;;;;;;;;;4993211;28;20093;-59
2023/03/18 12:38:21;;;;;;;;;;;;;;;;;;4992686;28;20052;-59
2023/03/18 12:40:49;;;;;;;17.40;16.38;;;;;;;;;;4993902;28;19917;-59
2023/03/18 12:43:18;;;;;;;14.45;13.65;;;;;;;;;;4992562;28;20057;-59
2023/03/18 12:45:48;;;;;;;15.35;14.45;;;;;;;;;;4997014;28;20030;-59
2023/03/18 12:48:19;;;;;;;15.73;14.60;;;;;;;;;;4991389;28;20044;-59
2023/03/18 12:51:01;;;;;;;16.00;15.10;;;;;;;;;;4995945;28;20038;-59
2023/03/18 12:53:38;;;;;;;15.38;14.48;;;;;;;;;;4993796;28;20038;-59
2023/03/18 12:56:12;;;;;;;17.63;16.63;;;;;;;;;;4992159;28;20483;-59
2023/03/18 12:58:44;;;;;;;18.88;17.88;;;;;;;;;;4996499;28;20114;-59
2023/03/18 13:01:19;;;;;;;18.20;17.20;;;;;;;;;;4991504;28;20100;-60
2023/03/18 13:03:50;;;;;;;20.38;19.27;;;;;;;;;;4991830;28;20026;-60
2023/03/18 13:06:39;;;;;;;27.65;26.17;;;;;;;;;;4989956;28;20034;-61
2023/03/18 13:09:17;;;;;;;23.08;21.77;;;;;;;;;;4990398;28;20048;-60
2023/03/18 13:11:45;;;;;;;21.55;20.38;;;;;;;;;;4990901;28;20038;-60
2023/03/18 13:14:25;;;;;;;25.17;23.88;;;;;;;;;;4991418;28;20046;-60
2023/03/18 13:16:51;;;;;;;23.77;22.48;;;;;;;;;;4991110;28;20065;-60
2023/03/18 13:19:17;;;;;;;25.58;24.23;;;;;;;;;;4995107;28;20057;-60
2023/03/18 13:21:50;;;;;;;27.65;26.05;;;;;;;;;;4993279;28;20030;-60
2023/03/18 13:24:24;;;;;;;24.80;23.40;;;;;;;;;;4993370;28;20080;-60
2023/03/18 13:27:12;;;;;;;18.02;17.02;;;;;;;;;;4992899;28;20048;-60
2023/03/18 13:29:53;;;;;;;19.33;18.23;;;;;;;;;;4991606;28;20092;-61
2023/03/18 13:32:57;;;;;;;19.85;18.75;;;;;;;;;;4994377;28;20121;-60
2023/03/18 13:35:25;;;;;;;21.75;20.55;;;;;;;;;;4988857;28;20049;-60
2023/03/18 13:38:05;;;;;;;19.88;18.67;;;;;;;;;;4995000;28;20045;-60
2023/03/18 13:41:00;;;;;;;28.93;27.43;;;;;;;;;;4992670;28;20612;-61
2023/03/18 13:43:27;;;;;;;18.02;17.02;;;;;;;;;;4990323;28;20152;-60
2023/03/18 13:45:55;;;;;;;18.15;17.10;;;;;;;;;;4996334;28;20069;-60
2023/03/18 13:48:26;;;;;;;15.65;14.75;;;;;;;;;;4994552;28;20041;-60
2023/03/18 13:50:53;;;;;;;;;;;;;;;;;;4998253;28;20774;-60
2023/03/18 13:53:29;;;;;;;19.98;18.88;;;;;;;;;;4996633;28;20241;-51
2023/03/18 13:55:55;;;;;;;21.65;20.33;;;;;;;;;;4994648;28;20026;-53
2023/03/18 13:58:32;;;;;;;26.15;24.75;;;;;;;;;;4993423;28;20793;-54
2023/03/18 14:01:23;;;;;;;22.15;20.90;;;;;;;;;;4994530;28;20022;-53
2023/03/18 14:03:49;;;;;;;20.92;19.83;;;;;;;;;;4985793;28;20038;-53
2023/03/18 14:06:45;;;;;;;20.45;19.35;;;;;;;;;;4995507;28;20052;-54
2023/03/18 14:09:29;;;;;;;18.10;17.10;;;;;;;;;;4993452;28;20117;-54
2023/03/18 14:12:03;;;;;;;20.35;19.25;;;;;;;;;;4993223;28;20136;-52
2023/03/18 14:14:38;;;;;;;36.08;34.22;;;;;;;;;;4994436;28;20034;-53
2023/03/18 14:17:04;;;;;;;35.53;33.70;;;;;;;;;;4994571;28;20046;-52
2023/03/18 14:19:32;;;;;;;43.22;41.05;;;;;;;;;;4994939;28;20037;-53
2023/03/18 14:22:18;;;;;;;42.75;40.30;;;;;;;;;;4996443;28;20036;-55
2023/03/18 14:24:45;;;;;;;34.80;33.00;;;;;;;;;;4994359;28;20464;-53
2023/03/18 14:27:17;;;;;;;30.35;28.70;;;;;;;;;;4993976;28;20034;-55
2023/03/18 14:29:46;;;;;;;21.73;20.55;;;;;;;;;;4993714;28;20034;-52
2023/03/18 14:32:32;;;;;;;19.75;18.65;;;;;;;;;;4992987;28;20034;-53
2023/03/18 14:35:03;;;;;;;18.05;17.05;;;;;;;;;;4994515;28;20042;-55
2023/03/18 14:37:31;;;;;;;21.15;20.00;;;;;;;;;;4992733;28;20408;-53